Time;durP1;ratioP1;P1;durP2;ratioP2;P2;SDS_P1;SDS_P2;PMS_P1;PMS_P2;Temp;Humidity;BMP_temperature;BMP_pressure;BME280_temperature;BME280_humidity;BME280_pressure;Samples;Min_cycle;Max_cycle;Signal;HPM_P1;HPM_P2
2023/10/16 00:01:27;;;;;;;4.60;3.00;;;;;6.50;101776.00;;;;5027102;28;20226;-70
2023/10/16 00:04:13;;;;;;;4.03;3.03;;;;;6.40;101773.00;;;;5019232;28;20233;-71
2023/10/16 00:07:00;;;;;;;4.37;3.17;;;;;6.40;101776.00;;;;5018003;28;20718;-70
2023/10/16 00:09:49;;;;;;;4.20;3.00;;;;;6.50;101778.00;;;;5022085;28;20311;-72
2023/10/16 00:12:36;;;;;;;5.70;3.70;;;;;6.40;101788.00;;;;5019661;28;20690;-71
2023/10/16 00:15:23;;;;;;;5.93;3.33;;;;;6.40;101785.00;;;;5016612;28;20745;-71
2023/10/16 00:18:16;;;;;;;5.37;3.70;;;;;6.40;101782.00;;;;5024023;28;20244;-73
2023/10/16 00:21:04;;;;;;;4.40;3.30;;;;;6.40;101777.00;;;;5024186;28;20225;-71
2023/10/16 00:23:51;;;;;;;5.03;3.27;;;;;6.40;101784.00;;;;5025649;28;20237;-71
2023/10/16 00:26:48;;;;;;;5.30;3.27;;;;;6.40;101783.00;;;;5027133;28;21511;-71
2023/10/16 00:29:36;;;;;;;4.87;3.37;;;;;6.40;101782.00;;;;5024479;28;20602;-72
2023/10/16 00:32:22;;;;;;;4.90;3.83;;;;;6.40;101776.00;;;;5022447;28;20717;-71
2023/10/16 00:35:08;;;;;;;5.40;3.83;;;;;6.40;101778.00;;;;5025913;28;20241;-70
2023/10/16 00:37:56;;;;;;;5.43;3.63;;;;;6.30;101780.00;;;;5024810;28;20225;-71
2023/10/16 00:40:45;;;;;;;7.37;3.50;;;;;6.20;101782.00;;;;5022328;28;20233;-70
2023/10/16 00:43:33;;;;;;;6.50;3.90;;;;;6.20;101777.00;;;;5025860;28;20229;-70
2023/10/16 00:46:29;;;;;;;7.37;3.90;;;;;6.20;101772.00;;;;5018899;28;20363;-71
2023/10/16 00:49:18;;;;;;;6.40;3.63;;;;;6.30;101775.00;;;;5025246;28;20225;-70
2023/10/16 00:52:06;;;;;;;5.87;3.60;;;;;6.30;101777.00;;;;5026326;28;20229;-72
2023/10/16 00:54:53;;;;;;;7.87;3.90;;;;;6.20;101773.00;;;;5022767;28;20236;-71
2023/10/16 00:57:43;;;;;;;7.83;3.40;;;;;6.20;101777.00;;;;5025239;28;20606;-71
2023/10/16 01:00:35;;;;;;;6.07;4.20;;;;;6.20;101769.00;;;;5026238;28;20361;-70
2023/10/16 01:03:22;;;;;;;5.20;3.57;;;;;6.10;101771.00;;;;5018721;28;20283;-70
2023/10/16 01:06:16;;;;;;;7.13;3.70;;;;;6.10;101769.00;;;;5024499;28;20602;-70
2023/10/16 01:09:04;;;;;;;5.30;3.37;;;;;6.00;101781.00;;;;5023669;28;20233;-70
2023/10/16 01:11:51;;;;;;;4.27;3.57;;;;;6.00;101771.00;;;;5024225;28;20217;-70
2023/10/16 01:14:38;;;;;;;7.30;4.17;;;;;6.00;101764.00;;;;5020084;28;21552;-71
2023/10/16 01:17:31;;;;;;;7.17;3.47;;;;;6.00;101753.00;;;;5021448;28;20606;-70
2023/10/16 01:20:18;;;;;;;8.27;4.03;;;;;6.00;101762.00;;;;5024152;28;20615;-70
2023/10/16 01:23:07;;;;;;;6.00;4.20;;;;;5.90;101761.00;;;;5024636;28;20236;-71
2023/10/16 01:25:53;;;;;;;5.73;4.10;;;;;6.00;101771.00;;;;5018401;28;20625;-71
2023/10/16 01:28:40;;;;;;;4.77;3.73;;;;;6.00;101759.00;;;;5026044;28;20423;-70
2023/10/16 01:31:27;;;;;;;5.80;4.00;;;;;6.00;101764.00;;;;5025281;28;20297;-70
2023/10/16 01:34:14;;;;;;;9.80;4.13;;;;;6.00;101758.00;;;;5024964;28;20718;-72
2023/10/16 01:37:08;;;;;;;5.00;3.70;;;;;5.90;101765.00;;;;5016065;28;20229;-72
2023/10/16 01:40:12;;;;;;;11.87;4.23;;;;;5.90;101760.00;;;;5024583;28;20237;-72
2023/10/16 01:42:59;;;;;;;7.93;3.90;;;;;5.80;101760.00;;;;5022388;28;20323;-70
2023/10/16 01:45:50;;;;;;;7.33;3.97;;;;;5.80;101760.00;;;;5024509;28;20304;-72
2023/10/16 01:48:39;;;;;;;7.23;4.00;;;;;5.80;101754.00;;;;5018951;28;20605;-69
2023/10/16 01:51:27;;;;;;;6.07;4.33;;;;;5.90;101748.00;;;;5025164;28;20233;-69
2023/10/16 01:54:14;;;;;;;5.67;4.30;;;;;5.90;101747.00;;;;5020828;28;20225;-71
2023/10/16 01:57:02;;;;;;;7.80;4.20;;;;;5.80;101740.00;;;;5017666;28;20233;-71
2023/10/16 01:59:49;;;;;;;5.70;4.10;;;;;5.80;101747.00;;;;5023609;28;20240;-71
2023/10/16 02:02:39;;;;;;;6.93;4.40;;;;;5.80;101742.00;;;;5021617;28;20345;-71
2023/10/16 02:05:27;;;;;;;6.30;4.20;;;;;5.80;101739.00;;;;5024715;28;20230;-71
2023/10/16 02:08:14;;;;;;;6.33;3.80;;;;;5.90;101736.00;;;;5022948;28;20732;-72
2023/10/16 02:11:02;;;;;;;6.87;4.47;;;;;5.90;101741.00;;;;5019592;28;20224;-71
2023/10/16 02:13:49;;;;;;;5.30;3.90;;;;;5.90;101727.00;;;;5020529;28;20221;-70
2023/10/16 02:16:37;;;;;;;7.70;5.07;;;;;5.80;101715.00;;;;5016579;28;20233;-72
2023/10/16 02:19:25;;;;;;;9.70;4.77;;;;;5.80;101723.00;;;;5021794;28;20213;-72
2023/10/16 02:22:12;;;;;;;7.73;4.33;;;;;5.80;101717.00;;;;5020658;28;20722;-71
2023/10/16 02:24:59;;;;;;;5.57;4.33;;;;;5.80;101723.00;;;;5016119;28;20250;-72
2023/10/16 02:27:46;;;;;;;9.83;4.37;;;;;5.80;101720.00;;;;5014671;28;20299;-71
2023/10/16 02:30:38;;;;;;;6.97;4.40;;;;;5.80;101718.00;;;;5021304;28;20352;-71
2023/10/16 02:33:28;;;;;;;9.57;4.93;;;;;5.80;101714.00;;;;5024776;28;20263;-69
2023/10/16 02:36:15;;;;;;;10.00;4.37;;;;;5.80;101719.00;;;;5019503;28;20236;-70
2023/10/16 02:39:07;;;;;;;6.87;4.60;;;;;5.80;101708.00;;;;5021998;28;20344;-70
2023/10/16 02:41:55;;;;;;;7.03;4.60;;;;;5.70;101710.00;;;;5024199;28;20268;-68
2023/10/16 02:44:43;;;;;;;5.80;4.47;;;;;5.60;101715.00;;;;5022591;28;20236;-71
2023/10/16 02:47:30;;;;;;;8.07;4.23;;;;;5.60;101710.00;;;;5026716;28;20353;-72
2023/10/16 02:50:16;;;;;;;7.57;4.80;;;;;5.50;101709.00;;;;5026457;28;20699;-70
2023/10/16 02:53:06;;;;;;;6.73;4.70;;;;;5.50;101714.00;;;;5024791;28;20232;-71
2023/10/16 02:55:58;;;;;;;8.27;4.33;;;;;5.50;101714.00;;;;5027739;28;20260;-69
2023/10/16 02:58:46;;;;;;;7.37;4.27;;;;;5.50;101715.00;;;;5022625;28;20229;-70
2023/10/16 03:01:33;;;;;;;11.07;4.63;;;;;5.40;101714.00;;;;5023650;28;20615;-71
2023/10/16 03:04:23;;;;;;;7.10;4.50;;;;;5.40;101715.00;;;;5021907;28;20229;-70
2023/10/16 03:07:09;;;;;;;6.40;4.40;;;;;5.40;101711.00;;;;5027320;28;20940;-69
2023/10/16 03:09:56;;;;;;;6.27;4.27;;;;;5.40;101724.00;;;;5028239;28;20237;-71
2023/10/16 03:12:42;;;;;;;8.27;4.60;;;;;5.30;101725.00;;;;5021676;28;20260;-70
2023/10/16 03:15:30;;;;;;;6.50;5.00;;;;;5.40;101724.00;;;;5026662;28;20233;-70
2023/10/16 03:18:22;;;;;;;7.63;4.77;;;;;5.50;101723.00;;;;5027837;28;20639;-70
2023/10/16 03:21:26;;;;;;;7.37;4.83;;;;;5.40;101714.00;;;;5023368;28;20256;-70
2023/10/16 03:24:12;;;;;;;8.70;5.50;;;;;5.50;101729.00;;;;5025072;28;20236;-69
2023/10/16 03:26:59;;;;;;;6.17;4.50;;;;;5.40;101707.00;;;;5027406;28;20229;-71
2023/10/16 03:29:45;;;;;;;9.60;4.87;;;;;5.40;101723.00;;;;5027131;28;20336;-70
2023/10/16 03:32:33;;;;;;;8.53;5.67;;;;;5.40;101723.00;;;;5021968;28;20710;-69
2023/10/16 03:35:26;;;;;;;7.87;4.93;;;;;5.50;101725.00;;;;5025265;28;20237;-69
2023/10/16 03:38:24;;;;;;;7.40;5.07;;;;;5.40;101726.00;;;;5023234;28;20226;-70
2023/10/16 03:41:13;;;;;;;7.60;5.00;;;;;5.50;101724.00;;;;5026823;28;20241;-70
2023/10/16 03:44:07;;;;;;;9.87;5.50;;;;;5.50;101729.00;;;;5022828;28;20765;-70
2023/10/16 03:46:55;;;;;;;9.80;5.40;;;;;5.50;101729.00;;;;5021861;28;20229;-70
2023/10/16 03:49:42;;;;;;;7.87;5.33;;;;;5.40;101720.00;;;;5025752;28;20637;-71
2023/10/16 03:52:28;;;;;;;12.20;5.57;;;;;5.40;101716.00;;;;5024718;28;20230;-70
2023/10/16 03:55:22;;;;;;;7.30;5.13;;;;;5.30;101722.00;;;;5027636;28;20237;-71
2023/10/16 03:58:10;;;;;;;7.63;4.83;;;;;5.30;101734.00;;;;5023717;28;20229;-70
2023/10/16 04:00:57;;;;;;;8.43;4.97;;;;;5.40;101729.00;;;;5025669;28;20700;-69
2023/10/16 04:03:47;;;;;;;7.87;5.37;;;;;5.40;101729.00;;;;5023204;28;20565;-70
2023/10/16 04:06:39;;;;;;;8.73;5.43;;;;;5.40;101726.00;;;;5026225;28;20220;-70
2023/10/16 04:09:30;;;;;;;10.17;6.27;;;;;5.40;101726.00;;;;5024777;28;20237;-69
2023/10/16 04:12:21;;;;;;;10.93;5.83;;;;;5.40;101722.00;;;;5027359;28;20248;-70
2023/10/16 04:15:22;;;;;;;7.43;5.27;;;;;5.40;101721.00;;;;5015506;28;20250;-71
2023/10/16 04:18:17;;;;;;;9.40;5.27;;;;;5.40;101719.00;;;;5022272;28;20237;-70
2023/10/16 04:24:30;;;;;;;8.37;5.47;;;;;5.30;101710.00;;;;5024550;28;20681;-70
2023/10/16 04:30:39;;;;;;;7.97;5.03;;;;;5.30;101691.00;;;;5013774;28;20275;-68
2023/10/16 04:33:48;;;;;;;9.53;5.87;;;;;5.20;101700.00;;;;5016241;28;20654;-70
2023/10/16 04:36:52;;;;;;;9.13;4.80;;;;;5.20;101696.00;;;;5027654;28;20225;-71
2023/10/16 04:46:15;;;;;;;8.10;5.40;;;;;5.30;101695.00;;;;5020662;28;20233;-69
2023/10/16 04:49:01;;;;;;;8.00;5.27;;;;;5.20;101686.00;;;;5023834;28;20236;-71
2023/10/16 04:51:56;;;;;;;9.67;5.53;;;;;5.30;101694.00;;;;5021530;28;20601;-69
2023/10/16 04:54:59;;;;;;;8.60;5.67;;;;;5.40;101684.00;;;;5026109;28;20225;-69
2023/10/16 04:58:16;;;;;;;12.10;6.80;;;;;5.50;101690.00;;;;5017841;28;20613;-71
2023/10/16 05:00:57;;;;;;;11.30;6.40;;;;;5.60;101684.00;;;;5025686;28;20241;-70
2023/10/16 05:04:24;;;;;;;9.43;6.17;;;;;5.70;101685.00;;;;5022606;28;20237;-70
2023/10/16 05:06:56;;;;;;;11.23;6.53;;;;;5.80;101685.00;;;;5024197;28;20224;-70
2023/10/16 05:19:15;;;;;;;11.57;6.80;;;;;5.70;101679.00;;;;5019545;28;20303;-70
2023/10/16 05:22:09;;;;;;;9.97;6.33;;;;;5.70;101678.00;;;;5018686;28;20434;-70
2023/10/16 06:14:12;;;;;;;12.83;7.10;;;;;5.80;101684.00;;;;5017579;28;20275;-68
2023/10/16 06:16:59;;;;;;;12.90;6.50;;;;;5.80;101690.00;;;;5019052;28;20225;-70
2023/10/16 06:19:45;;;;;;;11.80;7.20;;;;;5.90;101681.00;;;;5022715;28;20249;-71
2023/10/16 06:22:31;;;;;;;10.43;6.80;;;;;5.90;101682.00;;;;5015400;28;20240;-70
2023/10/16 06:25:19;;;;;;;13.70;7.10;;;;;5.90;101685.00;;;;5020702;28;20894;-70
2023/10/16 06:28:11;;;;;;;12.57;7.23;;;;;5.90;101682.00;;;;5024376;28;20229;-72
2023/10/16 06:30:59;;;;;;;17.57;7.97;;;;;5.90;101682.00;;;;5015719;28;20674;-71
2023/10/16 06:33:45;;;;;;;13.97;6.73;;;;;6.00;101684.00;;;;5023603;28;20626;-71
2023/10/16 06:36:33;;;;;;;15.53;7.37;;;;;6.00;101693.00;;;;5017522;28;20229;-71
2023/10/16 06:39:29;;;;;;;16.77;8.07;;;;;6.00;101692.00;;;;5014751;28;20233;-70
2023/10/16 06:42:18;;;;;;;17.73;7.67;;;;;6.10;101706.00;;;;5019648;28;20240;-70
2023/10/16 06:45:07;;;;;;;14.07;8.07;;;;;6.10;101706.00;;;;5017028;28;20232;-71
2023/10/16 06:47:58;;;;;;;11.53;7.53;;;;;6.20;101702.00;;;;5023938;28;20624;-69
2023/10/16 06:50:53;;;;;;;13.17;7.67;;;;;6.40;101704.00;;;;5024205;28;20229;-71
2023/10/16 06:53:42;;;;;;;13.80;7.83;;;;;6.40;101706.00;;;;5023085;28;20272;-71
2023/10/16 06:56:31;;;;;;;13.93;7.60;;;;;6.50;101700.00;;;;5020957;28;20229;-70
2023/10/16 06:59:17;;;;;;;14.37;8.10;;;;;6.60;101704.00;;;;5022728;28;20229;-70
2023/10/16 07:02:04;;;;;;;14.93;7.60;;;;;6.60;101702.00;;;;5018266;28;20276;-71
2023/10/16 07:04:51;;;;;;;14.20;7.53;;;;;6.70;101713.00;;;;5021845;28;20308;-70
2023/10/16 07:07:39;;;;;;;20.57;8.40;;;;;6.80;101716.00;;;;5021296;28;20241;-68
2023/10/16 07:10:25;;;;;;;15.97;8.37;;;;;6.90;101716.00;;;;4995553;28;20222;-71
2023/10/16 07:13:11;;;;;;;14.70;8.93;;;;;6.90;101717.00;;;;5023717;28;20233;-71
2023/10/16 07:15:59;;;;;;;19.47;8.83;;;;;7.00;101713.00;;;;5015920;28;20229;-73
2023/10/16 07:18:50;;;;;;;22.30;8.60;;;;;7.00;101706.00;;;;5022043;28;20721;-71
2023/10/16 07:21:38;;;;;;;15.77;8.17;;;;;7.00;101708.00;;;;5023038;28;20300;-70
2023/10/16 07:24:24;;;;;;;14.70;8.00;;;;;7.20;101727.00;;;;5021451;28;20257;-70
2023/10/16 07:27:13;;;;;;;18.40;8.77;;;;;7.20;101720.00;;;;5025511;28;20352;-70
2023/10/16 07:30:00;;;;;;;13.23;7.70;;;;;7.30;101722.00;;;;5022766;28;20373;-72
2023/10/16 07:32:46;;;;;;;13.47;8.20;;;;;7.30;101720.00;;;;5024797;28;20232;-70
2023/10/16 07:35:34;;;;;;;15.13;8.20;;;;;7.40;101724.00;;;;5022237;28;20321;-70
2023/10/16 07:38:25;;;;;;;15.00;8.47;;;;;7.40;101728.00;;;;5017270;28;20614;-69
2023/10/16 07:41:13;;;;;;;18.13;8.63;;;;;7.40;101722.00;;;;5022835;28;20226;-71
2023/10/16 07:44:04;;;;;;;16.67;8.90;;;;;7.50;101721.00;;;;5019250;28;20236;-70
2023/10/16 07:46:51;;;;;;;15.80;8.83;;;;;7.60;101723.00;;;;5026118;28;20246;-71
2023/10/16 07:49:40;;;;;;;18.87;9.30;;;;;7.60;101711.00;;;;5022459;28;20245;-71
2023/10/16 07:52:28;;;;;;;20.30;8.17;;;;;7.60;101722.00;;;;5020445;28;20253;-71
2023/10/16 07:55:19;;;;;;;19.70;9.00;;;;;7.70;101729.00;;;;5023422;28;20317;-70
2023/10/16 07:58:12;;;;;;;17.17;8.93;;;;;7.60;101729.00;;;;5024005;28;20232;-70
2023/10/16 08:01:17;;;;;;;15.63;8.23;;;;;7.70;101725.00;;;;5023178;28;20225;-70
2023/10/16 08:04:06;;;;;;;19.23;8.93;;;;;7.70;101726.00;;;;5025135;28;20370;-71
2023/10/16 08:06:57;;;;;;;15.87;8.07;;;;;7.80;101718.00;;;;5025730;28;20229;-70
2023/10/16 08:10:28;;;;;;;18.10;9.33;;;;;7.80;101724.00;;;;5025643;28;20602;-72
2023/10/16 08:13:11;;;;;;;17.77;8.40;;;;;7.90;101738.00;;;;5022898;28;20806;-70
2023/10/16 08:16:01;;;;;;;19.10;8.93;;;;;7.80;101730.00;;;;5024019;28;20230;-70
2023/10/16 08:18:48;;;;;;;19.27;8.67;;;;;7.90;101731.00;;;;5023989;28;20246;-71
2023/10/16 08:21:35;;;;;;;14.60;9.20;;;;;8.00;101730.00;;;;5026344;28;20309;-71
2023/10/16 08:24:24;;;;;;;18.70;8.77;;;;;7.90;101739.00;;;;5023404;28;20264;-72
2023/10/16 08:27:19;;;;;;;17.70;8.80;;;;;8.00;101718.00;;;;5024400;28;20229;-72
2023/10/16 08:30:17;;;;;;;19.43;8.97;;;;;8.10;101730.00;;;;5025125;28;20376;-71
2023/10/16 08:33:07;;;;;;;20.13;9.27;;;;;8.10;101732.00;;;;5024625;28;20549;-72
2023/10/16 08:35:58;;;;;;;16.80;9.17;;;;;8.10;101737.00;;;;5019224;28;20296;-70
2023/10/16 08:38:51;;;;;;;15.03;9.37;;;;;8.10;101738.00;;;;5022559;28;20765;-71
2023/10/16 08:41:45;;;;;;;19.13;9.13;;;;;8.10;101739.00;;;;5025261;28;20606;-70
2023/10/16 08:44:40;;;;;;;16.10;8.60;;;;;8.20;101733.00;;;;5022260;28;21359;-71
2023/10/16 08:47:33;;;;;;;19.83;8.90;;;;;8.30;101725.00;;;;5017444;28;20760;-71
2023/10/16 08:50:40;;;;;;;19.63;9.87;;;;;8.30;101725.00;;;;5018456;28;20238;-70
2023/10/16 08:53:32;;;;;;;19.43;9.90;;;;;8.50;101729.00;;;;5020990;28;20225;-69
2023/10/16 08:56:23;;;;;;;16.10;9.17;;;;;8.60;101726.00;;;;5021122;28;20352;-70
2023/10/16 08:59:11;;;;;;;15.27;9.13;;;;;8.70;101724.00;;;;5019629;28;20303;-70
2023/10/16 09:02:01;;;;;;;16.83;8.97;;;;;8.60;101721.00;;;;5016103;28;20283;-71
2023/10/16 09:04:49;;;;;;;17.57;8.87;;;;;8.70;101728.00;;;;5023583;28;20255;-71
2023/10/16 09:07:39;;;;;;;15.90;8.57;;;;;8.80;101730.00;;;;5020975;28;20264;-69
2023/10/16 09:10:30;;;;;;;17.87;9.40;;;;;8.80;101731.00;;;;5023357;28;20236;-71
2023/10/16 09:13:17;;;;;;;15.27;8.60;;;;;8.80;101728.00;;;;5021264;28;20233;-70
2023/10/16 09:16:11;;;;;;;13.23;8.63;;;;;9.00;101742.00;;;;5023975;28;20230;-69
2023/10/16 09:18:58;;;;;;;14.40;8.57;;;;;9.00;101731.00;;;;5019633;28;20737;-70
2023/10/16 09:21:52;;;;;;;13.87;8.87;;;;;9.30;101734.00;;;;5023423;28;20237;-69
2023/10/16 09:24:39;;;;;;;17.80;9.50;;;;;9.50;101732.00;;;;5025820;28;20235;-69
2023/10/16 09:27:30;;;;;;;17.80;9.07;;;;;9.60;101726.00;;;;5018371;28;20285;-69
2023/10/16 09:30:18;;;;;;;22.20;9.97;;;;;9.80;101727.00;;;;5022207;28;20228;-70
2023/10/16 09:33:06;;;;;;;16.67;8.77;;;;;10.00;101733.00;;;;5024499;28;20347;-71
2023/10/16 09:36:00;;;;;;;13.80;8.63;;;;;10.00;101733.00;;;;5024182;28;20262;-69
2023/10/16 09:38:51;;;;;;;19.07;9.13;;;;;9.90;101731.00;;;;5021047;28;20342;-68
2023/10/16 09:41:42;;;;;;;16.80;9.17;;;;;9.90;101732.00;;;;5023167;28;20240;-69
2023/10/16 09:44:37;;;;;;;16.17;8.67;;;;;10.00;101738.00;;;;5024524;28;20377;-70
2023/10/16 09:47:27;;;;;;;16.33;8.50;;;;;10.00;101734.00;;;;5024002;28;20224;-70
2023/10/16 09:50:18;;;;;;;18.83;9.17;;;;;10.10;101733.00;;;;5024574;28;20371;-69
2023/10/16 09:53:07;;;;;;;15.03;8.30;;;;;10.20;101730.00;;;;5022667;28;20276;-70
2023/10/16 09:55:58;;;;;;;17.23;9.20;;;;;10.10;101730.00;;;;5022935;28;20237;-69
2023/10/16 09:58:51;;;;;;;13.80;9.00;;;;;10.30;101742.00;;;;5023852;28;20232;-69
2023/10/16 10:01:42;;;;;;;20.00;9.17;;;;;10.40;101735.00;;;;5014150;28;20433;-69
2023/10/16 10:04:32;;;;;;;16.57;9.47;;;;;10.60;101733.00;;;;5023297;28;20241;-71
2023/10/16 10:07:20;;;;;;;15.37;8.70;;;;;10.70;101739.00;;;;5017177;28;20311;-69
2023/10/16 10:13:16;;;;;;;14.33;8.20;;;;;10.90;101728.00;;;;5020332;28;20261;-68
2023/10/16 10:16:10;;;;;;;11.03;7.73;;;;;10.80;101730.00;;;;5022733;28;20240;-70
2023/10/16 10:19:01;;;;;;;10.97;7.10;;;;;10.90;101726.00;;;;5016338;28;20237;-71
2023/10/16 10:21:47;;;;;;;12.30;7.43;;;;;11.00;101726.00;;;;5018223;28;20356;-70
2023/10/16 10:24:35;;;;;;;16.50;8.63;;;;;11.10;101732.00;;;;5013402;28;20240;-70
2023/10/16 10:27:21;;;;;;;18.17;8.20;;;;;11.20;101729.00;;;;5017326;28;20229;-70
2023/10/16 10:30:17;;;;;;;13.33;7.27;;;;;11.30;101719.00;;;;5020221;28;20778;-70
2023/10/16 10:33:06;;;;;;;9.87;7.07;;;;;11.30;101716.00;;;;5023126;28;20299;-68
2023/10/16 10:36:32;;;;;;;13.53;8.03;;;;;11.40;101726.00;;;;5023580;28;20729;-69
2023/10/16 10:39:46;;;;;;;16.27;7.00;;;;;11.30;101730.00;;;;5017344;28;20237;-69
2023/10/16 10:42:41;;;;;;;14.73;6.93;;;;;11.30;101716.00;;;;5017590;28;20348;-67
2023/10/16 10:48:32;;;;;;;13.00;6.90;;;;;11.40;101720.00;;;;5017592;28;20610;-70
2023/10/16 10:51:18;;;;;;;14.10;6.73;;;;;11.40;101712.00;;;;5020999;28;20221;-68
2023/10/16 10:54:06;;;;;;;12.17;7.33;;;;;11.60;101712.00;;;;5019525;28;20594;-71
2023/10/16 10:56:53;;;;;;;14.50;7.30;;;;;11.90;101712.00;;;;5017390;28;20360;-68
2023/10/16 10:59:41;;;;;;;11.60;6.60;;;;;11.90;101702.00;;;;5024237;28;20237;-70
2023/10/16 11:05:31;;;;;;;9.23;5.90;;;;;12.00;101699.00;;;;5024679;28;20232;-68
2023/10/16 11:08:26;;;;;;;9.60;5.77;;;;;12.30;101699.00;;;;5021149;28;20369;-69
2023/10/16 11:11:12;;;;;;;11.50;5.90;;;;;12.40;101691.00;;;;5026722;28;20291;-70
2023/10/16 11:13:59;;;;;;;8.63;5.70;;;;;12.40;101686.00;;;;5027340;28;20237;-69
2023/10/16 11:16:48;;;;;;;11.47;6.20;;;;;12.60;101693.00;;;;5022903;28;20258;-69
2023/10/16 11:19:49;;;;;;;7.97;6.03;;;;;12.60;101684.00;;;;5024002;28;20276;-70
2023/10/16 11:22:39;;;;;;;7.97;5.70;;;;;12.50;101681.00;;;;5023685;28;20240;-73
2023/10/16 11:25:28;;;;;;;8.53;5.50;;;;;12.60;101678.00;;;;5025191;28;20746;-72
2023/10/16 11:28:20;;;;;;;10.00;5.67;;;;;12.90;101679.00;;;;5022064;28;20804;-73
2023/10/16 11:31:09;;;;;;;11.03;5.90;;;;;13.00;101670.00;;;;5017782;28;20238;-71
2023/10/16 11:34:02;;;;;;;5.53;4.13;;;;;13.10;101673.00;;;;5024982;28;20308;-73
2023/10/16 11:36:51;;;;;;;5.13;3.50;;;;;13.00;101662.00;;;;5021775;28;20231;-75
2023/10/16 11:39:38;;;;;;;4.53;3.30;;;;;13.00;101664.00;;;;5026146;28;20291;-71
2023/10/16 11:42:25;;;;;;;6.43;3.00;;;;;13.00;101668.00;;;;5026619;28;20229;-72
2023/10/16 11:45:18;;;;;;;6.53;2.73;;;;;12.80;101677.00;;;;5019952;28;20246;-71
2023/10/16 11:48:26;;;;;;;4.83;2.40;;;;;12.60;101664.00;;;;5025725;28;20232;-72
2023/10/16 11:51:18;;;;;;;3.83;2.90;;;;;12.50;101663.00;;;;5024989;28;20766;-72
2023/10/16 11:54:10;;;;;;;3.50;2.47;;;;;12.40;101659.00;;;;5023526;28;20714;-72
2023/10/16 11:56:59;;;;;;;3.80;2.60;;;;;12.60;101659.00;;;;5026560;28;20746;-71
2023/10/16 11:59:46;;;;;;;4.63;3.30;;;;;12.90;101661.00;;;;5023192;28;20396;-73
2023/10/16 12:02:32;;;;;;;4.57;2.50;;;;;13.10;101653.00;;;;5023419;28;20717;-71
2023/10/16 12:05:23;;;;;;;4.87;3.07;;;;;13.40;101652.00;;;;5025748;28;20307;-70
2023/10/16 12:08:09;;;;;;;5.53;2.50;;;;;13.70;101647.00;;;;5025994;28;20317;-70
2023/10/16 12:11:01;;;;;;;3.30;2.37;;;;;13.50;101636.00;;;;5020919;28;20689;-71
2023/10/16 12:13:47;;;;;;;3.87;1.97;;;;;13.50;101644.00;;;;5021127;28;20641;-69
2023/10/16 12:16:34;;;;;;;2.60;1.73;;;;;13.50;101640.00;;;;5025839;28;20230;-70
2023/10/16 12:19:24;;;;;;;2.93;1.70;;;;;13.70;101635.00;;;;5020570;28;20233;-70
2023/10/16 12:22:11;;;;;;;1.77;1.43;;;;;13.70;101643.00;;;;5025914;28;20284;-72
2023/10/16 12:24:58;;;;;;;2.50;1.60;;;;;13.60;101631.00;;;;5021113;28;20243;-72
2023/10/16 12:27:45;;;;;;;5.77;2.30;;;;;13.60;101629.00;;;;5019583;28;20230;-73
2023/10/16 12:30:32;;;;;;;3.90;1.90;;;;;13.50;101631.00;;;;5024263;28;20333;-73
2023/10/16 12:33:20;;;;;;;3.20;2.10;;;;;13.50;101640.00;;;;5023685;28;20233;-72
2023/10/16 12:36:08;;;;;;;5.00;2.30;;;;;13.50;101640.00;;;;5021830;28;20236;-74
2023/10/16 12:38:54;;;;;;;3.67;2.20;;;;;13.30;101629.00;;;;5026235;28;20857;-70
2023/10/16 12:41:42;;;;;;;3.20;2.03;;;;;13.30;101625.00;;;;5025621;28;20234;-72
2023/10/16 12:44:30;;;;;;;5.20;2.10;;;;;13.30;101633.00;;;;5019919;28;20889;-71
2023/10/16 12:47:16;;;;;;;3.43;2.40;;;;;13.30;101629.00;;;;5025085;28;20292;-72
2023/10/16 12:50:24;;;;;;;3.83;2.50;;;;;13.30;101621.00;;;;5024356;28;20241;-70
2023/10/16 12:53:11;;;;;;;5.60;2.77;;;;;13.40;101626.00;;;;5016488;28;20304;-66
2023/10/16 12:55:58;;;;;;;4.67;2.60;;;;;13.40;101628.00;;;;5024556;28;20234;-72
2023/10/16 12:58:45;;;;;;;5.97;2.30;;;;;13.60;101616.00;;;;5019439;28;20272;-69
2023/10/16 13:01:33;;;;;;;6.63;3.03;;;;;13.60;101614.00;;;;5025385;28;20292;-68
2023/10/16 13:04:19;;;;;;;6.40;2.53;;;;;13.60;101598.00;;;;5020384;28;20233;-68
2023/10/16 13:07:06;;;;;;;6.50;2.67;;;;;13.70;101609.00;;;;5024260;28;20384;-71
2023/10/16 13:09:53;;;;;;;3.37;2.17;;;;;13.80;101605.00;;;;5020698;28;20722;-70
2023/10/16 13:12:41;;;;;;;4.77;2.30;;;;;13.80;101613.00;;;;5024435;28;20697;-66
2023/10/16 13:15:29;;;;;;;3.80;2.47;;;;;13.80;101606.00;;;;5024414;28;20571;-68
2023/10/16 13:18:18;;;;;;;4.23;2.60;;;;;13.80;101608.00;;;;5024591;28;20234;-69
2023/10/16 13:21:12;;;;;;;3.67;2.50;;;;;13.80;101608.00;;;;5024455;28;20518;-68
2023/10/16 13:23:59;;;;;;;4.30;2.40;;;;;13.80;101617.00;;;;5024395;28;20235;-70
2023/10/16 13:26:47;;;;;;;4.63;2.50;;;;;13.70;101608.00;;;;5022021;28;20236;-69
2023/10/16 13:29:37;;;;;;;3.83;2.00;;;;;13.80;101614.00;;;;5025273;28;20276;-71
2023/10/16 13:32:24;;;;;;;4.80;2.33;;;;;13.90;101605.00;;;;5022833;28;20229;-70
2023/10/16 13:35:16;;;;;;;3.83;2.13;;;;;13.90;101602.00;;;;5021565;28;20273;-70
2023/10/16 13:38:04;;;;;;;5.93;2.20;;;;;13.90;101604.00;;;;5024443;28;20599;-67
2023/10/16 13:40:50;;;;;;;4.57;2.30;;;;;13.90;101607.00;;;;5018634;28;20236;-69
2023/10/16 13:43:39;;;;;;;3.53;2.50;;;;;13.90;101604.00;;;;5016858;28;20363;-69
2023/10/16 13:46:26;;;;;;;4.80;2.23;;;;;13.80;101609.00;;;;5023528;28;20314;-70
2023/10/16 13:49:14;;;;;;;6.40;2.50;;;;;13.80;101594.00;;;;5015021;28;20649;-69
2023/10/16 13:52:01;;;;;;;5.77;2.40;;;;;13.70;101600.00;;;;5019657;28;20239;-69
2023/10/16 13:54:50;;;;;;;3.20;1.93;;;;;13.70;101599.00;;;;5017767;28;20657;-70
2023/10/16 13:57:38;;;;;;;3.73;1.70;;;;;13.80;101605.00;;;;5021962;28;20228;-73
2023/10/16 14:00:31;;;;;;;4.87;2.23;;;;;13.60;101600.00;;;;5024004;28;20240;-70
2023/10/16 14:03:21;;;;;;;3.00;1.73;;;;;13.70;101603.00;;;;5024049;28;20217;-71
2023/10/16 14:06:12;;;;;;;4.40;1.40;;;;;13.70;101599.00;;;;5019062;28;20356;-68
2023/10/16 14:09:10;;;;;;;3.07;1.40;;;;;13.60;101596.00;;;;5021996;28;20304;-67
2023/10/16 14:11:58;;;;;;;2.73;1.40;;;;;13.60;101603.00;;;;5013284;28;20239;-69
2023/10/16 14:14:50;;;;;;;2.53;1.20;;;;;13.50;101591.00;;;;5022078;28;20237;-69
2023/10/16 14:17:38;;;;;;;1.80;1.30;;;;;13.50;101591.00;;;;5023296;28;20334;-70
2023/10/16 14:20:36;;;;;;;4.80;1.27;;;;;13.40;101586.00;;;;5021903;28;20249;-70
2023/10/16 14:23:28;;;;;;;3.20;1.20;;;;;13.40;101586.00;;;;5020973;28;20300;-70
2023/10/16 14:26:21;;;;;;;1.60;1.50;;;;;13.40;101587.00;;;;5024617;28;20258;-71
2023/10/16 14:29:10;;;;;;;5.03;1.60;;;;;13.40;101589.00;;;;5018020;28;20231;-71
2023/10/16 14:31:56;;;;;;;1.60;1.23;;;;;13.50;101591.00;;;;5022571;28;20809;-71
2023/10/16 14:34:44;;;;;;;1.63;1.27;;;;;13.50;101593.00;;;;5021969;28;20303;-70
2023/10/16 14:37:31;;;;;;;3.10;1.43;;;;;13.50;101597.00;;;;5024995;28;20221;-69
2023/10/16 14:40:17;;;;;;;3.73;1.30;;;;;13.40;101591.00;;;;5026907;28;20317;-69
2023/10/16 14:43:06;;;;;;;3.20;1.20;;;;;13.40;101589.00;;;;5027358;28;20225;-69
2023/10/16 14:45:53;;;;;;;2.57;1.20;;;;;13.50;101577.00;;;;5026039;28;20234;-70
2023/10/16 14:48:42;;;;;;;1.10;1.00;;;;;13.40;101577.00;;;;5027614;28;20237;-70
2023/10/16 14:51:30;;;;;;;3.67;1.10;;;;;13.40;101573.00;;;;5022465;28;20717;-71
2023/10/16 14:54:16;;;;;;;3.30;1.40;;;;;13.30;101579.00;;;;5024468;28;20869;-71
2023/10/16 14:57:03;;;;;;;3.27;1.20;;;;;13.10;101571.00;;;;5020991;28;20284;-70
2023/10/16 14:59:51;;;;;;;2.03;1.20;;;;;13.10;101585.00;;;;5022025;28;20239;-70
2023/10/16 15:02:38;;;;;;;2.87;1.00;;;;;13.00;101574.00;;;;5025188;28;20233;-70
2023/10/16 15:05:24;;;;;;;1.07;1.00;;;;;12.90;101573.00;;;;5023618;28;20296;-70
2023/10/16 15:08:12;;;;;;;1.47;1.00;;;;;12.90;101572.00;;;;5016190;28;20725;-70
2023/10/16 15:10:59;;;;;;;2.43;1.20;;;;;12.80;101571.00;;;;5027060;28;20271;-70
2023/10/16 15:13:46;;;;;;;1.43;1.10;;;;;12.80;101573.00;;;;5027783;28;20366;-71
2023/10/16 15:16:34;;;;;;;1.93;1.10;;;;;12.70;101574.00;;;;5026061;28;20352;-72
2023/10/16 15:19:20;;;;;;;2.87;1.03;;;;;12.70;101575.00;;;;5027041;28;20367;-71
2023/10/16 15:22:06;;;;;;;1.87;1.10;;;;;12.60;101578.00;;;;5017268;28;20229;-72
2023/10/16 15:24:53;;;;;;;1.20;1.10;;;;;12.60;101572.00;;;;5017688;28;71196;-70